Time,TemperatureF,DewpointF,PressureIn,WindDirection,WindDirectionDegrees,WindSpeedMPH,WindSpeedGustMPH,Humidity,HourlyPrecipIn,Conditions,Clouds,dailyrainin,SoftwareType,DateUTC
2013-05-27 00:00:00,49.8,38.1,30.12,ENE,72,1.0,2.0,64,0.00,,,-99.99,VWS V12.05,2013-05-27 04:00:00,
2013-05-27 00:30:00,49.2,38.7,30.12,ENE,72,2.0,3.0,67,0.00,,,-99.99,VWS V12.05,2013-05-27 04:30:00,
2013-05-27 01:00:00,49.4,38.5,30.12,ENE,72,2.0,3.0,66,0.00,,,-99.99,VWS V12.05,2013-05-27 05:00:00,
2013-05-27 01:30:00,48.6,38.5,30.12,ENE,72,0.0,2.0,68,0.00,,,-99.99,VWS V12.05,2013-05-27 05:30:00,
2013-05-27 02:00:00,48.0,38.0,30.13,ENE,72,2.0,2.0,68,0.00,,,-99.99,VWS V12.05,2013-05-27 06:00:00,
2013-05-27 02:30:00,48.0,38.0,30.13,ENE,72,1.0,2.0,68,0.00,,,-99.99,VWS V12.05,2013-05-27 06:30:00,
2013-05-27 03:00:00,47.7,37.7,30.13,ENE,72,1.0,3.0,68,0.00,,,-99.99,VWS V12.05,2013-05-27 07:00:00,
2013-05-27 03:30:00,47.0,37.4,30.13,ENE,72,2.0,3.0,69,0.00,,,-99.99,VWS V12.05,2013-05-27 07:30:00,
2013-05-27 04:00:00,47.1,36.3,30.13,ENE,72,1.0,3.0,66,0.00,,,-99.99,VWS V12.05,2013-05-27 08:00:00,
2013-05-27 04:30:00,47.9,35.1,30.14,ENE,72,2.0,3.0,61,0.00,,,-99.99,VWS V12.05,2013-05-27 08:30:00,
2013-05-27 05:00:00,47.4,34.6,30.13,ENE,72,2.0,3.0,61,0.00,,,-99.99,VWS V12.05,2013-05-27 09:00:00,
2013-05-27 05:30:00,48.2,35.0,30.13,ENE,72,2.0,3.0,60,0.00,,,-99.99,VWS V12.05,2013-05-27 09:30:00,
2013-05-27 06:00:00,47.1,36.3,30.13,ENE,72,0.0,3.0,66,0.00,,,-99.99,VWS V12.05,2013-05-27 10:00:00,
2013-05-27 06:30:00,48.3,35.5,30.14,ENE,72,1.0,1.0,61,0.00,,,-99.99,VWS V12.05,2013-05-27 10:30:00,
2013-05-27 07:00:00,50.7,37.3,30.14,ENE,72,0.0,2.0,60,0.00,,,-99.99,VWS V12.05,2013-05-27 11:00:00,
2013-05-27 07:30:00,51.4,40.4,30.15,ENE,72,0.0,1.0,66,0.00,,,-99.99,VWS V12.05,2013-05-27 11:30:00,
2013-05-27 08:00:00,52.6,39.1,30.15,ENE,72,2.0,2.0,60,0.00,,,-99.99,VWS V12.05,2013-05-27 12:00:00,
2013-05-27 08:30:00,55.0,41.4,30.16,NNE,24,0.0,5.0,60,0.00,,,-99.99,VWS V12.05,2013-05-27 12:30:00,
2013-05-27 09:00:00,55.3,40.3,30.16,SW,230,0.0,5.0,57,0.00,,,-99.99,VWS V12.05,2013-05-27 13:00:00,
2013-05-27 09:30:00,56.7,39.8,30.16,WSW,256,0.0,6.0,53,0.00,,,-99.99,VWS V12.05,2013-05-27 13:30:00,
2013-05-27 10:00:00,58.3,38.2,30.17,SSW,200,2.0,6.0,47,0.00,,,-99.99,VWS V12.05,2013-05-27 14:00:00,
2013-05-27 10:30:00,60.1,40.9,30.16,North,357,0.0,4.0,49,0.00,,,-99.99,VWS V12.05,2013-05-27 14:30:00,
2013-05-27 11:00:00,61.3,40.9,30.16,NE,49,0.0,6.0,47,0.00,,,-99.99,VWS V12.05,2013-05-27 15:00:00,
2013-05-27 11:30:00,62.4,39.0,30.16,ENE,61,1.0,5.0,42,0.00,,,-99.99,VWS V12.05,2013-05-27 15:30:00,
2013-05-27 12:00:00,63.7,38.3,30.15,North,3,1.0,7.0,39,0.00,,,-99.99,VWS V12.05,2013-05-27 16:00:00,
2013-05-27 12:30:00,64.5,39.0,30.14,SE,128,2.0,7.0,39,0.00,,,-99.99,VWS V12.05,2013-05-27 16:30:00,
2013-05-27 13:00:00,64.7,39.8,30.14,South,186,5.0,7.0,40,0.00,,,-99.99,VWS V12.05,2013-05-27 17:00:00,
2013-05-27 13:30:00,64.8,39.3,30.12,North,357,1.0,3.0,39,0.00,,,-99.99,VWS V12.05,2013-05-27 17:30:00,
2013-05-27 14:00:00,65.0,40.8,30.12,North,3,1.0,5.0,41,0.00,,,-99.99,VWS V12.05,2013-05-27 18:00:00,
2013-05-27 14:30:00,64.8,40.6,30.11,ENE,58,0.0,3.0,41,0.00,,,-99.99,VWS V12.05,2013-05-27 18:30:00,
2013-05-27 15:00:00,64.5,41.5,30.11,North,1,0.0,6.0,43,0.00,,,-99.99,VWS V12.05,2013-05-27 19:00:00,
2013-05-27 15:30:00,64.3,40.7,30.10,North,1,2.0,3.0,42,0.00,,,-99.99,VWS V12.05,2013-05-27 19:30:00,
2013-05-27 16:00:00,64.3,41.9,30.09,NNE,21,1.0,5.0,44,0.00,,,-99.99,VWS V12.05,2013-05-27 20:00:00,
2013-05-27 16:30:00,63.9,43.3,30.09,NE,55,0.0,2.0,47,0.00,,,-99.99,VWS V12.05,2013-05-27 20:30:00,
2013-05-27 17:00:00,63.7,42.5,30.08,ESE,114,1.0,4.0,46,0.00,,,-99.99,VWS V12.05,2013-05-27 21:00:00,
2013-05-27 17:30:00,63.4,42.8,30.08,NNW,332,0.0,4.0,47,0.00,,,-99.99,VWS V12.05,2013-05-27 21:30:00,
2013-05-27 18:00:00,63.2,42.7,30.08,NW,311,0.0,4.0,47,0.00,,,-99.99,VWS V12.05,2013-05-27 22:00:00,
2013-05-27 18:30:00,62.7,42.2,30.07,ENE,71,0.0,3.0,47,0.00,,,-99.99,VWS V12.05,2013-05-27 22:30:00,
2013-05-27 18:59:00,62.4,43.5,30.07,ENE,71,0.0,3.0,50,0.00,,,-99.99,VWS V12.05,2013-05-27 22:59:00,
2013-05-27 19:29:00,61.6,44.3,30.07,ENE,71,0.0,1.0,53,0.00,,,-99.99,VWS V12.05,2013-05-27 23:29:00,
2013-05-27 19:59:00,60.9,46.0,30.07,ENE,71,0.0,2.0,58,0.00,,,-99.99,VWS V12.05,2013-05-27 23:59:00,
2013-05-27 20:29:00,59.9,46.4,30.07,ENE,71,0.0,0.0,61,0.00,,,-99.99,VWS V12.05,2013-05-28 00:29:00,
2013-05-27 20:59:00,58.7,47.4,30.07,ENE,71,0.0,2.0,66,0.00,,,-99.99,VWS V12.05,2013-05-28 00:59:00,
2013-05-27 21:29:00,57.8,47.7,30.07,ENE,71,0.0,1.0,69,0.00,,,-99.99,VWS V12.05,2013-05-28 01:29:00,
2013-05-27 21:59:00,57.2,47.9,30.08,ENE,71,0.0,1.0,71,0.00,,,-99.99,VWS V12.05,2013-05-28 01:59:00,
2013-05-27 22:29:00,56.9,48.0,30.08,ENE,71,0.0,1.0,72,0.00,,,-99.99,VWS V12.05,2013-05-28 02:29:00,
2013-05-27 22:59:00,56.6,47.3,30.07,ENE,71,0.0,2.0,71,0.00,,,-99.99,VWS V12.05,2013-05-28 02:59:00,
2013-05-27 23:29:00,56.5,48.3,30.07,ENE,71,1.0,2.0,74,0.00,,,-99.99,VWS V12.05,2013-05-28 03:29:00,
2013-05-27 23:59:00,56.2,47.7,30.08,North,0,1.0,3.0,73,0.00,,,-99.99,VWS V12.05,2013-05-28 03:59:00,